Time,TemperatureF,DewpointF,PressureIn,WindDirection,WindDirectionDegrees,WindSpeedMPH,WindSpeedGustMPH,Humidity,HourlyPrecipIn,Conditions,Clouds,dailyrainin,SoftwareType,DateUTC
2013-01-25 00:00:00,10.2,2.8,29.44,North,0,0.0,0.0,71,0.00,,,0.00,proprietary,2013-01-25 05:00:00,
2013-01-25 00:04:00,10.2,2.9,29.44,SSE,152,0.1,1.2,71,0.00,,,0.00,proprietary,2013-01-25 05:04:00,
2013-01-25 00:08:00,10.2,3.0,29.44,North,0,0.0,0.0,71,0.00,,,0.00,proprietary,2013-01-25 05:08:00,
2013-01-25 00:12:00,10.2,3.0,29.44,North,0,0.0,0.0,71,0.00,,,0.00,proprietary,2013-01-25 05:12:00,
2013-01-25 00:17:00,10.3,2.8,29.43,North,0,0.0,0.0,70,0.00,,,0.00,proprietary,2013-01-25 05:17:00,
2013-01-25 00:22:00,10.5,2.1,29.43,East,95,1.5,2.4,67,0.00,,,0.00,proprietary,2013-01-25 05:22:00,
2013-01-25 00:27:00,10.7,1.7,29.43,ESE,110,0.9,1.9,66,0.00,,,0.00,proprietary,2013-01-25 05:27:00,
2013-01-25 00:32:00,10.9,1.4,29.43,ESE,121,1.8,2.5,64,0.00,,,0.00,proprietary,2013-01-25 05:32:00,
2013-01-25 00:37:00,11.0,1.5,29.43,East,89,1.4,2.5,64,0.00,,,0.00,proprietary,2013-01-25 05:37:00,
2013-01-25 00:42:00,11.1,1.5,29.43,ESE,111,0.2,1.4,64,0.00,,,0.00,proprietary,2013-01-25 05:42:00,
2013-01-25 00:47:00,11.2,1.5,29.42,ENE,76,0.3,2.3,64,0.00,,,0.00,proprietary,2013-01-25 05:47:00,
2013-01-25 00:53:00,11.4,1.3,29.41,ESE,109,2.0,2.9,63,0.00,,,0.00,proprietary,2013-01-25 05:53:00,
2013-01-25 00:58:00,11.4,1.3,29.41,East,86,1.5,2.8,62,0.00,,,0.00,proprietary,2013-01-25 05:58:00,
2013-01-25 01:03:00,11.5,1.2,29.41,East,79,0.6,1.6,62,0.00,,,0.00,proprietary,2013-01-25 06:03:00,
2013-01-25 01:08:00,11.6,0.9,29.41,North,0,0.0,0.0,61,0.00,,,0.00,proprietary,2013-01-25 06:08:00,
2013-01-25 01:13:00,11.7,0.8,29.41,North,0,0.0,0.0,60,0.00,,,0.00,proprietary,2013-01-25 06:13:00,
2013-01-25 01:18:00,11.8,0.9,29.41,North,0,0.0,0.0,60,0.00,,,0.00,proprietary,2013-01-25 06:18:00,
2013-01-25 01:23:00,11.9,0.5,29.41,ESE,117,1.0,1.9,59,0.00,,,0.00,proprietary,2013-01-25 06:23:00,
2013-01-25 01:28:00,11.9,0.6,29.41,SE,137,2.9,3.3,59,0.00,,,0.00,proprietary,2013-01-25 06:28:00,
2013-01-25 01:33:00,12.0,0.3,29.40,ESE,116,1.5,2.5,58,0.00,,,0.00,proprietary,2013-01-25 06:33:00,
2013-01-25 01:38:00,12.1,0.3,29.41,SE,146,0.5,1.4,58,0.00,,,0.00,proprietary,2013-01-25 06:38:00,
2013-01-25 01:43:00,12.2,0.2,29.41,SE,141,1.6,2.4,57,0.00,,,0.00,proprietary,2013-01-25 06:43:00,
2013-01-25 01:48:00,12.2,0.3,29.41,ESE,114,1.5,2.4,57,0.00,,,0.00,proprietary,2013-01-25 06:48:00,
2013-01-25 01:53:00,12.3,0.6,29.41,SE,130,2.0,3.4,58,0.00,,,0.00,proprietary,2013-01-25 06:53:00,
2013-01-25 01:58:00,12.3,0.6,29.41,SE,134,2.2,2.9,58,0.00,,,0.00,proprietary,2013-01-25 06:58:00,
2013-01-25 02:04:00,12.3,0.8,29.40,SE,143,0.8,2.9,59,0.00,,,0.00,proprietary,2013-01-25 07:04:00,
2013-01-25 02:09:00,12.3,1.2,29.40,SE,143,2.1,2.9,60,0.00,,,0.00,proprietary,2013-01-25 07:09:00,
2013-01-25 02:14:00,12.3,1.2,29.40,SE,127,2.7,4.0,60,0.00,,,0.00,proprietary,2013-01-25 07:14:00,
2013-01-25 02:19:00,12.3,1.0,29.39,ESE,118,2.5,2.9,59,0.00,,,0.00,proprietary,2013-01-25 07:19:00,
2013-01-25 02:24:00,12.2,1.3,29.39,SE,138,1.9,3.4,60,0.00,,,0.00,proprietary,2013-01-25 07:24:00,
2013-01-25 02:30:00,12.2,1.3,29.39,ESE,107,1.8,3.5,60,0.00,,,0.00,proprietary,2013-01-25 07:30:00,
2013-01-25 02:35:00,12.2,1.6,29.39,SE,134,2.1,2.8,61,0.00,,,0.00,proprietary,2013-01-25 07:35:00,
2013-01-25 02:40:00,12.2,1.6,29.39,SE,143,3.2,3.9,61,0.00,,,0.00,proprietary,2013-01-25 07:40:00,
2013-01-25 02:45:00,12.2,1.8,29.38,SE,126,1.9,2.7,62,0.00,,,0.00,proprietary,2013-01-25 07:45:00,
2013-01-25 02:50:00,12.3,2.0,29.38,SE,143,3.1,3.6,62,0.00,,,0.00,proprietary,2013-01-25 07:50:00,
2013-01-25 02:55:00,12.3,2.2,29.38,SE,135,3.1,3.5,63,0.00,,,0.00,proprietary,2013-01-25 07:55:00,
2013-01-25 03:00:00,12.3,2.2,29.37,SE,127,3.1,4.5,63,0.00,,,0.00,proprietary,2013-01-25 08:00:00,
2013-01-25 03:06:00,12.3,2.4,29.36,ESE,118,1.6,2.2,63,0.00,,,0.00,proprietary,2013-01-25 08:06:00,
2013-01-25 03:12:00,12.2,2.3,29.36,SE,125,2.9,3.6,63,0.00,,,0.00,proprietary,2013-01-25 08:12:00,
2013-01-25 03:17:00,12.3,2.5,29.36,SE,137,3.4,4.0,64,0.00,,,0.00,proprietary,2013-01-25 08:17:00,
2013-01-25 03:22:00,12.3,2.8,29.36,SE,134,4.5,5.6,65,0.00,,,0.00,proprietary,2013-01-25 08:22:00,
2013-01-25 03:27:00,12.3,2.9,29.35,SE,136,3.7,4.7,65,0.00,,,0.00,proprietary,2013-01-25 08:27:00,
2013-01-25 03:32:00,12.3,2.9,29.35,SE,138,2.7,3.7,65,0.00,,,0.00,proprietary,2013-01-25 08:32:00,
2013-01-25 03:37:00,12.4,3.2,29.35,SE,144,3.4,4.1,65,0.00,,,0.00,proprietary,2013-01-25 08:37:00,
2013-01-25 03:42:00,12.4,3.3,29.34,SE,139,3.5,4.3,66,0.00,,,0.00,proprietary,2013-01-25 08:42:00,
2013-01-25 03:47:00,12.5,3.6,29.34,SE,146,2.8,3.3,66,0.00,,,0.00,proprietary,2013-01-25 08:47:00,
2013-01-25 03:52:00,12.6,3.9,29.34,SE,144,3.2,4.4,67,0.00,,,0.00,proprietary,2013-01-25 08:52:00,
2013-01-25 03:57:00,12.6,4.0,29.34,SE,134,2.3,3.3,67,0.00,,,0.00,proprietary,2013-01-25 08:57:00,
2013-01-25 04:02:00,12.7,4.1,29.33,SE,136,3.2,4.2,67,0.00,,,0.00,proprietary,2013-01-25 09:02:00,
2013-01-25 04:07:00,12.7,4.2,29.32,SE,125,1.7,2.0,68,0.00,,,0.00,proprietary,2013-01-25 09:07:00,
2013-01-25 04:12:00,12.8,4.3,29.32,SE,137,3.0,4.0,68,0.00,,,0.00,proprietary,2013-01-25 09:12:00,
2013-01-25 04:17:00,12.8,4.5,29.32,ESE,112,2.3,3.8,68,0.00,,,0.00,proprietary,2013-01-25 09:17:00,
2013-01-25 04:22:00,12.8,4.7,29.32,SE,131,1.2,2.8,69,0.00,,,0.00,proprietary,2013-01-25 09:22:00,
2013-01-25 04:27:00,12.9,4.9,29.32,SE,137,2.5,2.9,69,0.00,,,0.00,proprietary,2013-01-25 09:27:00,
2013-01-25 04:32:00,12.9,4.9,29.31,ESE,121,2.6,3.2,69,0.00,,,0.00,proprietary,2013-01-25 09:32:00,
2013-01-25 04:37:00,12.9,5.0,29.31,SE,128,1.5,2.8,69,0.00,,,0.00,proprietary,2013-01-25 09:37:00,
2013-01-25 04:42:00,13.0,5.2,29.31,SE,138,4.3,5.4,70,0.00,,,0.00,proprietary,2013-01-25 09:42:00,
2013-01-25 04:47:00,13.1,5.4,29.31,SE,144,4.1,5.8,70,0.00,,,0.00,proprietary,2013-01-25 09:47:00,
2013-01-25 04:52:00,13.2,5.6,29.30,SE,142,2.6,3.1,71,0.00,,,0.00,proprietary,2013-01-25 09:52:00,
2013-01-25 04:57:00,13.2,5.6,29.30,SE,140,3.3,3.6,71,0.00,,,0.00,proprietary,2013-01-25 09:57:00,
2013-01-25 05:02:00,13.2,5.7,29.30,SE,144,3.3,4.5,71,0.00,,,0.00,proprietary,2013-01-25 10:02:00,
2013-01-25 05:07:00,13.2,5.7,29.29,SE,140,4.4,5.4,71,0.00,,,0.00,proprietary,2013-01-25 10:07:00,
2013-01-25 05:12:00,13.2,5.7,29.29,SE,135,4.1,5.0,71,0.00,,,0.00,proprietary,2013-01-25 10:12:00,
2013-01-25 05:17:00,13.2,5.8,29.29,ESE,121,3.7,4.8,71,0.00,,,0.00,proprietary,2013-01-25 10:17:00,
2013-01-25 05:22:00,13.2,5.9,29.28,SE,129,3.4,5.1,72,0.00,,,0.00,proprietary,2013-01-25 10:22:00,
2013-01-25 05:27:00,13.2,6.0,29.27,SE,127,4.3,5.8,72,0.00,,,0.00,proprietary,2013-01-25 10:27:00,
2013-01-25 05:32:00,13.2,6.1,29.27,SE,128,3.3,4.0,72,0.00,,,0.00,proprietary,2013-01-25 10:32:00,
2013-01-25 05:37:00,13.2,6.2,29.27,SE,142,3.1,4.2,73,0.00,,,0.00,proprietary,2013-01-25 10:37:00,
2013-01-25 05:42:00,13.3,6.4,29.26,SE,140,4.6,5.4,73,0.00,,,0.00,proprietary,2013-01-25 10:42:00,
2013-01-25 05:47:00,13.3,6.5,29.26,SE,136,3.7,5.6,73,0.00,,,0.00,proprietary,2013-01-25 10:47:00,
2013-01-25 05:52:00,13.3,6.7,29.26,SE,132,2.5,3.1,74,0.00,,,0.00,proprietary,2013-01-25 10:52:00,
2013-01-25 05:57:00,13.2,6.9,29.25,ESE,108,2.2,2.8,75,0.00,,,0.00,proprietary,2013-01-25 10:57:00,
2013-01-25 06:02:00,13.2,7.1,29.25,SE,138,2.8,5.2,76,0.00,,,0.00,proprietary,2013-01-25 11:02:00,
2013-01-25 06:07:00,13.2,7.2,29.24,East,87,2.8,3.6,76,0.00,,,0.00,proprietary,2013-01-25 11:07:00,
2013-01-25 06:12:00,13.1,7.5,29.24,East,93,3.0,3.5,77,0.00,,,0.00,proprietary,2013-01-25 11:12:00,
2013-01-25 06:17:00,13.1,7.8,29.24,ESE,120,1.7,2.5,78,0.00,,,0.00,proprietary,2013-01-25 11:17:00,
2013-01-25 06:22:00,13.0,8.0,29.24,SE,131,2.8,4.4,79,0.00,,,0.00,proprietary,2013-01-25 11:22:00,
2013-01-25 06:28:00,13.0,8.3,29.24,ESE,111,3.0,4.0,80,0.00,,,0.00,proprietary,2013-01-25 11:28:00,
2013-01-25 06:33:00,13.0,8.5,29.23,East,100,3.9,5.1,81,0.00,,,0.00,proprietary,2013-01-25 11:33:00,
2013-01-25 06:38:00,13.1,8.7,29.23,ESE,109,3.6,5.0,82,0.00,,,0.00,proprietary,2013-01-25 11:38:00,
2013-01-25 06:43:00,13.1,8.8,29.23,SE,124,2.3,4.1,82,0.00,,,0.00,proprietary,2013-01-25 11:43:00,
2013-01-25 06:48:00,13.1,9.0,29.23,ESE,104,2.4,4.0,83,0.00,,,0.00,proprietary,2013-01-25 11:48:00,
2013-01-25 06:53:00,13.0,9.1,29.23,SE,137,2.6,3.6,83,0.00,,,0.00,proprietary,2013-01-25 11:53:00,
2013-01-25 06:58:00,13.0,9.2,29.22,East,87,2.7,4.6,84,0.00,,,0.00,proprietary,2013-01-25 11:58:00,
2013-01-25 07:03:00,13.0,9.4,29.22,ESE,121,2.6,3.5,84,0.00,,,0.00,proprietary,2013-01-25 12:03:00,
2013-01-25 07:08:00,13.0,9.5,29.22,ESE,121,4.5,5.2,85,0.00,,,0.00,proprietary,2013-01-25 12:08:00,
2013-01-25 07:13:00,12.9,9.6,29.22,SE,136,1.8,2.6,86,0.00,,,0.00,proprietary,2013-01-25 12:13:00,
2013-01-25 07:18:00,12.9,9.7,29.21,ESE,115,2.4,4.0,86,0.00,,,0.00,proprietary,2013-01-25 12:18:00,
2013-01-25 07:23:00,12.9,9.9,29.21,East,98,1.9,2.5,87,0.00,,,0.00,proprietary,2013-01-25 12:23:00,
2013-01-25 07:28:00,13.0,10.0,29.21,ESE,114,2.9,4.9,87,0.00,,,0.00,proprietary,2013-01-25 12:28:00,
2013-01-25 07:33:00,13.0,10.1,29.21,SE,129,2.8,3.8,87,0.00,,,0.00,proprietary,2013-01-25 12:33:00,
2013-01-25 07:38:00,13.0,10.1,29.20,SE,135,3.8,5.0,87,0.00,,,0.00,proprietary,2013-01-25 12:38:00,
2013-01-25 07:43:00,13.0,10.2,29.20,SSE,148,4.6,5.1,88,0.00,,,0.00,proprietary,2013-01-25 12:43:00,
2013-01-25 07:48:00,13.0,10.2,29.20,SE,142,5.1,6.5,88,0.00,,,0.00,proprietary,2013-01-25 12:48:00,
2013-01-25 07:53:00,13.1,10.3,29.20,SE,131,4.8,5.8,88,0.00,,,0.00,proprietary,2013-01-25 12:53:00,
2013-01-25 07:58:00,13.1,10.4,29.20,SE,131,4.4,5.0,88,0.00,,,0.00,proprietary,2013-01-25 12:58:00,
2013-01-25 08:03:00,13.1,10.4,29.19,SE,140,4.2,5.6,88,0.00,,,0.00,proprietary,2013-01-25 13:03:00,
2013-01-25 08:08:00,13.2,10.5,29.19,SE,131,2.1,3.0,88,0.00,,,0.00,proprietary,2013-01-25 13:08:00,
2013-01-25 08:13:00,13.2,10.6,29.19,ESE,103,2.5,4.3,89,0.00,,,0.00,proprietary,2013-01-25 13:13:00,
2013-01-25 08:18:00,13.2,10.7,29.18,SE,135,2.9,4.3,89,0.00,,,0.00,proprietary,2013-01-25 13:18:00,
2013-01-25 08:23:00,13.3,10.7,29.18,SE,140,4.6,5.8,89,0.00,,,0.00,proprietary,2013-01-25 13:23:00,
2013-01-25 08:28:00,13.4,10.8,29.18,ESE,120,2.7,4.6,89,0.00,,,0.00,proprietary,2013-01-25 13:28:00,
2013-01-25 08:33:00,13.4,10.9,29.17,ESE,112,1.8,4.6,89,0.00,,,0.00,proprietary,2013-01-25 13:33:00,
2013-01-25 08:38:00,13.5,11.0,29.17,SE,126,1.4,2.8,89,0.00,,,0.00,proprietary,2013-01-25 13:38:00,
2013-01-25 08:43:00,13.6,11.2,29.17,SE,144,5.5,7.0,89,0.00,,,0.00,proprietary,2013-01-25 13:43:00,
2013-01-25 08:48:00,13.8,11.3,29.17,SE,141,4.6,6.1,89,0.00,,,0.00,proprietary,2013-01-25 13:48:00,
2013-01-25 08:53:00,13.9,11.4,29.17,SE,132,6.2,8.0,89,0.00,,,0.00,proprietary,2013-01-25 13:53:00,
2013-01-25 08:58:00,14.0,11.5,29.16,SE,141,5.1,6.9,89,0.00,,,0.00,proprietary,2013-01-25 13:58:00,
2013-01-25 09:03:00,14.0,11.5,29.16,SE,129,4.9,5.9,89,0.00,,,0.00,proprietary,2013-01-25 14:03:00,
2013-01-25 09:08:00,14.1,11.7,29.16,SE,139,4.5,5.7,89,0.00,,,0.00,proprietary,2013-01-25 14:08:00,
2013-01-25 09:13:00,14.2,11.7,29.15,SE,138,4.7,7.0,89,0.00,,,0.00,proprietary,2013-01-25 14:13:00,
2013-01-25 09:18:00,14.3,11.7,29.15,SE,146,6.8,8.0,89,0.00,,,0.00,proprietary,2013-01-25 14:18:00,
2013-01-25 09:23:00,14.3,11.7,29.15,SE,139,4.3,4.9,89,0.00,,,0.00,proprietary,2013-01-25 14:23:00,
2013-01-25 09:28:00,14.4,11.7,29.15,SE,138,6.6,8.2,88,0.00,,,0.00,proprietary,2013-01-25 14:28:00,
2013-01-25 09:33:00,14.6,12.0,29.15,SE,135,4.1,5.8,89,0.00,,,0.00,proprietary,2013-01-25 14:33:00,
2013-01-25 09:38:00,14.7,12.1,29.15,SE,140,3.9,5.1,89,0.00,,,0.00,proprietary,2013-01-25 14:38:00,
2013-01-25 09:43:00,14.7,12.0,29.15,SE,146,4.0,4.3,88,0.00,,,0.00,proprietary,2013-01-25 14:43:00,
2013-01-25 09:48:00,14.8,12.0,29.15,SSE,152,4.2,5.4,88,0.00,,,0.00,proprietary,2013-01-25 14:48:00,
2013-01-25 09:53:00,14.9,12.2,29.15,SSE,156,6.9,8.4,88,0.00,,,0.00,proprietary,2013-01-25 14:53:00,
2013-01-25 09:58:00,14.9,12.0,29.15,SE,137,5.1,6.8,88,0.00,,,0.00,proprietary,2013-01-25 14:58:00,
2013-01-25 10:03:00,15.0,12.2,29.15,SSE,147,6.0,8.0,88,0.00,,,0.00,proprietary,2013-01-25 15:03:00,
2013-01-25 10:08:00,15.2,12.3,29.15,SSE,151,3.3,4.0,88,0.00,,,0.00,proprietary,2013-01-25 15:08:00,
2013-01-25 10:13:00,15.2,12.2,29.14,SE,133,5.1,6.5,87,0.00,,,0.00,proprietary,2013-01-25 15:13:00,
2013-01-25 10:18:00,15.3,12.3,29.14,SE,146,5.4,6.7,87,0.00,,,0.00,proprietary,2013-01-25 15:18:00,
2013-01-25 10:23:00,15.3,12.2,29.13,SE,144,6.4,8.0,87,0.00,,,0.00,proprietary,2013-01-25 15:23:00,
2013-01-25 10:28:00,15.4,12.3,29.13,SE,131,4.9,7.9,87,0.00,,,0.00,proprietary,2013-01-25 15:28:00,
2013-01-25 10:33:00,15.3,12.0,29.14,SSE,149,4.8,5.7,86,0.00,,,0.00,proprietary,2013-01-25 15:33:00,
2013-01-25 10:38:00,15.3,12.1,29.14,SE,135,4.6,6.0,86,0.00,,,0.00,proprietary,2013-01-25 15:38:00,
2013-01-25 10:43:00,15.3,12.0,29.13,SE,142,6.2,7.9,86,0.00,,,0.00,proprietary,2013-01-25 15:43:00,
2013-01-25 10:48:00,15.4,12.3,29.13,SE,145,7.0,8.6,87,0.00,,,0.00,proprietary,2013-01-25 15:48:00,
2013-01-25 10:53:00,15.6,12.4,29.13,SE,141,7.5,8.7,87,0.00,,,0.00,proprietary,2013-01-25 15:53:00,
2013-01-25 10:58:00,15.6,12.3,29.13,SSE,149,6.2,7.2,86,0.00,,,0.00,proprietary,2013-01-25 15:58:00,
2013-01-25 11:03:00,15.6,12.4,29.13,SE,129,6.5,8.5,87,0.00,,,0.00,proprietary,2013-01-25 16:03:00,
2013-01-25 11:08:00,15.6,12.6,29.13,SE,145,6.1,7.1,87,0.00,,,0.00,proprietary,2013-01-25 16:08:00,
2013-01-25 11:13:00,16.0,13.1,29.12,SE,135,6.4,7.8,88,0.00,,,0.00,proprietary,2013-01-25 16:13:00,
2013-01-25 11:18:00,15.8,12.6,29.12,SSE,163,6.9,8.5,87,0.00,,,0.00,proprietary,2013-01-25 16:18:00,
2013-01-25 11:23:00,16.0,12.9,29.12,SSE,148,6.8,9.4,87,0.00,,,0.00,proprietary,2013-01-25 16:23:00,
2013-01-25 11:29:00,16.2,13.2,29.11,SSE,149,7.1,8.5,87,0.00,,,0.00,proprietary,2013-01-25 16:29:00,
2013-01-25 11:34:00,16.4,13.4,29.11,SSE,147,6.3,7.7,87,0.00,,,0.00,proprietary,2013-01-25 16:34:00,
2013-01-25 11:39:00,16.2,12.9,29.10,SE,138,6.1,7.2,86,0.00,,,0.00,proprietary,2013-01-25 16:39:00,
2013-01-25 11:44:00,16.1,12.7,29.11,SE,139,7.1,8.3,86,0.00,,,0.00,proprietary,2013-01-25 16:44:00,
2013-01-25 11:49:00,16.1,12.8,29.11,SE,144,4.8,6.2,86,0.00,,,0.00,proprietary,2013-01-25 16:49:00,
2013-01-25 11:54:00,16.3,13.2,29.11,SE,129,4.5,5.4,87,0.00,,,0.00,proprietary,2013-01-25 16:54:00,
2013-01-25 11:59:00,16.4,13.4,29.10,SSE,149,5.6,6.7,87,0.00,,,0.00,proprietary,2013-01-25 16:59:00,
2013-01-25 12:04:00,16.5,13.5,29.10,SSE,152,7.5,8.9,87,0.00,,,0.00,proprietary,2013-01-25 17:04:00,
2013-01-25 12:09:00,16.3,13.4,29.10,SSE,149,5.9,6.9,88,0.00,,,0.00,proprietary,2013-01-25 17:09:00,
2013-01-25 12:14:00,16.6,13.9,29.09,SE,146,5.0,7.4,88,0.00,,,0.00,proprietary,2013-01-25 17:14:00,
2013-01-25 12:19:00,17.0,14.2,29.08,SSE,149,5.8,7.1,88,0.00,,,0.00,proprietary,2013-01-25 17:19:00,
2013-01-25 12:24:00,17.2,14.3,29.08,SSE,150,5.0,6.8,88,0.00,,,0.00,proprietary,2013-01-25 17:24:00,
2013-01-25 12:29:00,17.1,14.1,29.07,SE,146,6.7,8.6,87,0.00,,,0.00,proprietary,2013-01-25 17:29:00,
2013-01-25 12:34:00,17.3,14.6,29.06,SSE,148,6.1,6.7,88,0.00,,,0.00,proprietary,2013-01-25 17:34:00,
2013-01-25 12:39:00,17.4,14.6,29.06,SE,143,6.0,7.2,88,0.00,,,0.00,proprietary,2013-01-25 17:39:00,
2013-01-25 12:44:00,17.6,14.8,29.06,SSE,149,7.1,8.6,88,0.00,,,0.00,proprietary,2013-01-25 17:44:00,
2013-01-25 12:49:00,17.4,14.5,29.06,SSE,153,6.9,8.7,87,0.00,,,0.00,proprietary,2013-01-25 17:49:00,
2013-01-25 12:54:00,17.0,14.0,29.06,SSE,152,7.2,9.1,87,0.00,,,0.00,proprietary,2013-01-25 17:54:00,
2013-01-25 12:59:00,17.3,14.4,29.05,SSE,150,5.7,7.8,88,0.00,,,0.00,proprietary,2013-01-25 17:59:00,
2013-01-25 13:04:00,17.6,14.6,29.05,SE,141,5.5,6.7,87,0.00,,,0.00,proprietary,2013-01-25 18:04:00,
2013-01-25 13:09:00,17.8,14.7,29.05,SSE,161,6.9,8.4,87,0.00,,,0.00,proprietary,2013-01-25 18:09:00,
2013-01-25 13:14:00,18.0,14.8,29.04,South,174,7.1,9.1,87,0.00,,,0.00,proprietary,2013-01-25 18:14:00,
2013-01-25 13:19:00,18.1,14.7,29.04,SSE,159,5.8,6.9,86,0.00,,,0.00,proprietary,2013-01-25 18:19:00,
2013-01-25 13:24:00,17.9,14.5,29.04,SSE,152,5.8,7.5,86,0.00,,,0.00,proprietary,2013-01-25 18:24:00,
2013-01-25 13:29:00,18.2,14.7,29.04,SSE,150,6.6,8.5,85,0.00,,,0.00,proprietary,2013-01-25 18:29:00,
2013-01-25 13:34:00,18.0,14.2,29.04,SE,136,5.0,8.2,84,0.00,,,0.00,proprietary,2013-01-25 18:34:00,
2013-01-25 13:39:00,18.1,14.4,29.03,SSE,149,6.4,8.8,84,0.00,,,0.00,proprietary,2013-01-25 18:39:00,
2013-01-25 13:44:00,18.0,13.8,29.03,SSE,162,5.1,6.7,83,0.00,,,0.00,proprietary,2013-01-25 18:44:00,
2013-01-25 13:49:00,18.0,13.9,29.03,SSE,149,6.4,7.6,83,0.00,,,0.00,proprietary,2013-01-25 18:49:00,
2013-01-25 13:54:00,17.8,13.3,29.02,SSE,150,6.8,7.9,82,0.00,,,0.00,proprietary,2013-01-25 18:54:00,
2013-01-25 13:59:00,17.9,13.2,29.02,SSE,156,7.2,8.6,81,0.00,,,0.00,proprietary,2013-01-25 18:59:00,
2013-01-25 14:04:00,18.0,13.5,29.02,SE,144,5.2,6.5,81,0.00,,,0.00,proprietary,2013-01-25 19:04:00,
2013-01-25 14:09:00,18.1,13.4,29.02,SSE,159,6.8,8.9,81,0.00,,,0.00,proprietary,2013-01-25 19:09:00,
2013-01-25 14:14:00,18.1,13.4,29.01,SSE,151,6.7,8.0,81,0.00,,,0.00,proprietary,2013-01-25 19:14:00,
2013-01-25 14:19:00,18.1,13.5,29.00,SSE,151,7.1,8.4,81,0.00,,,0.00,proprietary,2013-01-25 19:19:00,
2013-01-25 14:24:00,18.1,13.6,29.00,SSE,149,5.0,6.4,81,0.00,,,0.00,proprietary,2013-01-25 19:24:00,
2013-01-25 14:29:00,18.1,13.6,29.00,SSE,152,5.9,7.1,82,0.00,,,0.00,proprietary,2013-01-25 19:29:00,
2013-01-25 14:34:00,18.1,13.5,29.00,SSE,163,6.2,7.2,81,0.00,,,0.00,proprietary,2013-01-25 19:34:00,
2013-01-25 14:39:00,18.2,13.5,29.00,South,180,6.5,7.8,81,0.00,,,0.00,proprietary,2013-01-25 19:39:00,
2013-01-25 14:44:00,18.2,13.4,29.00,South,180,7.4,8.6,81,0.00,,,0.00,proprietary,2013-01-25 19:44:00,
2013-01-25 14:49:00,18.4,13.6,29.00,SE,146,8.0,9.1,81,0.00,,,0.00,proprietary,2013-01-25 19:49:00,
2013-01-25 14:54:00,18.3,13.4,29.00,SE,137,5.9,7.9,80,0.00,,,0.00,proprietary,2013-01-25 19:54:00,
2013-01-25 14:59:00,18.5,13.5,28.99,SSE,160,4.3,5.3,80,0.00,,,0.00,proprietary,2013-01-25 19:59:00,
2013-01-25 15:04:00,18.5,13.5,28.99,SE,143,7.0,8.6,80,0.00,,,0.00,proprietary,2013-01-25 20:04:00,
2013-01-25 15:09:00,18.6,13.4,28.99,SE,144,5.7,7.3,79,0.00,,,0.00,proprietary,2013-01-25 20:09:00,
2013-01-25 15:14:00,18.5,13.3,28.99,SE,142,6.2,7.5,79,0.00,,,0.00,proprietary,2013-01-25 20:14:00,
2013-01-25 15:19:00,18.4,13.2,28.99,SE,139,5.7,7.0,79,0.00,,,0.00,proprietary,2013-01-25 20:19:00,
2013-01-25 15:24:00,18.6,13.7,28.99,SSE,160,5.9,6.9,80,0.00,,,0.00,proprietary,2013-01-25 20:24:00,
2013-01-25 15:29:00,18.5,13.2,28.99,SSE,157,5.1,5.8,79,0.00,,,0.00,proprietary,2013-01-25 20:29:00,
2013-01-25 15:34:00,18.4,13.3,28.99,SSE,159,5.8,7.4,79,0.00,,,0.00,proprietary,2013-01-25 20:34:00,
2013-01-25 15:39:00,18.4,13.4,28.99,SSE,162,5.3,6.2,80,0.00,,,0.00,proprietary,2013-01-25 20:39:00,
2013-01-25 15:44:00,18.5,13.4,28.99,South,174,6.2,7.3,80,0.00,,,0.00,proprietary,2013-01-25 20:44:00,
2013-01-25 15:49:00,18.5,13.7,28.99,SSE,153,4.0,4.7,81,0.00,,,0.00,proprietary,2013-01-25 20:49:00,
2013-01-25 15:54:00,18.6,13.9,28.99,SSE,157,4.8,5.6,81,0.00,,,0.00,proprietary,2013-01-25 20:54:00,
2013-01-25 15:59:00,18.5,13.8,28.99,SSE,155,5.4,6.5,81,0.00,,,0.00,proprietary,2013-01-25 20:59:00,
2013-01-25 16:04:00,18.5,13.8,28.99,SSE,151,6.8,8.8,81,0.00,,,0.00,proprietary,2013-01-25 21:04:00,
2013-01-25 16:09:00,18.5,13.8,28.99,SSE,162,4.7,5.7,81,0.00,,,0.00,proprietary,2013-01-25 21:09:00,
2013-01-25 16:14:00,18.5,13.9,28.99,SE,145,5.5,7.4,81,0.00,,,0.00,proprietary,2013-01-25 21:14:00,
2013-01-25 16:19:00,18.7,14.1,28.98,SSE,150,5.8,7.1,82,0.00,,,0.00,proprietary,2013-01-25 21:19:00,
2013-01-25 16:24:00,18.8,14.2,28.98,SE,140,6.0,7.4,81,0.00,,,0.00,proprietary,2013-01-25 21:24:00,
2013-01-25 16:29:00,18.8,14.2,28.98,SE,139,6.3,7.6,81,0.00,,,0.00,proprietary,2013-01-25 21:29:00,
2013-01-25 16:34:00,18.8,14.1,28.98,SE,136,6.7,7.8,81,0.00,,,0.00,proprietary,2013-01-25 21:34:00,
2013-01-25 16:39:00,18.7,14.0,28.98,SSE,159,6.2,7.3,81,0.00,,,0.00,proprietary,2013-01-25 21:39:00,
2013-01-25 16:44:00,18.7,13.9,28.98,SE,144,5.8,6.5,81,0.00,,,0.00,proprietary,2013-01-25 21:44:00,
2013-01-25 16:49:00,18.5,13.7,28.98,South,169,6.4,7.5,81,0.00,,,0.00,proprietary,2013-01-25 21:49:00,
2013-01-25 16:54:00,18.5,13.9,28.98,SE,145,5.3,6.2,81,0.00,,,0.00,proprietary,2013-01-25 21:54:00,
2013-01-25 16:59:00,18.5,13.9,28.98,SSE,157,5.2,5.7,81,0.00,,,0.00,proprietary,2013-01-25 21:59:00,
2013-01-25 17:04:00,18.5,13.9,28.98,SSE,151,5.1,6.0,82,0.00,,,0.00,proprietary,2013-01-25 22:04:00,
2013-01-25 17:09:00,18.4,13.9,28.98,SSE,163,7.8,9.9,82,0.00,,,0.00,proprietary,2013-01-25 22:09:00,
2013-01-25 17:14:00,18.4,13.8,28.98,SSE,168,6.4,7.5,82,0.00,,,0.00,proprietary,2013-01-25 22:14:00,
2013-01-25 17:19:00,18.4,13.9,28.98,SSE,148,4.0,6.6,82,0.00,,,0.00,proprietary,2013-01-25 22:19:00,
2013-01-25 17:24:00,18.4,13.9,28.98,SSE,151,6.8,8.6,82,0.00,,,0.00,proprietary,2013-01-25 22:24:00,
2013-01-25 17:29:00,18.4,13.9,28.98,SSE,162,4.1,4.7,82,0.00,,,0.00,proprietary,2013-01-25 22:29:00,
2013-01-25 17:34:00,18.4,13.8,28.98,SSE,158,5.8,6.6,82,0.00,,,0.00,proprietary,2013-01-25 22:34:00,
2013-01-25 17:39:00,18.3,13.8,28.98,SSE,162,4.8,5.9,82,0.00,,,0.00,proprietary,2013-01-25 22:39:00,
2013-01-25 17:44:00,18.4,13.8,28.98,SSE,162,3.7,4.1,82,0.00,,,0.00,proprietary,2013-01-25 22:44:00,
2013-01-25 17:49:00,18.3,13.7,28.99,South,174,3.2,3.8,81,0.00,,,0.00,proprietary,2013-01-25 22:49:00,
2013-01-25 17:54:00,18.3,13.8,28.99,SSW,201,4.6,5.4,82,0.00,,,0.00,proprietary,2013-01-25 22:54:00,
2013-01-25 17:59:00,18.3,13.9,28.99,SSE,163,5.0,5.6,82,0.00,,,0.00,proprietary,2013-01-25 22:59:00,
2013-01-25 18:04:00,18.3,13.9,28.99,South,190,4.3,6.0,82,0.00,,,0.00,proprietary,2013-01-25 23:04:00,
2013-01-25 18:09:00,18.2,14.0,28.99,South,175,4.0,5.2,83,0.00,,,0.00,proprietary,2013-01-25 23:09:00,
2013-01-25 18:14:00,18.2,14.1,29.00,South,189,2.8,3.4,83,0.00,,,0.00,proprietary,2013-01-25 23:14:00,
2013-01-25 18:19:00,18.3,14.3,28.99,South,169,3.9,4.7,83,0.00,,,0.00,proprietary,2013-01-25 23:19:00,
2013-01-25 18:24:00,18.2,14.2,28.99,SSE,164,3.1,3.8,84,0.00,,,0.00,proprietary,2013-01-25 23:24:00,
2013-01-25 18:29:00,18.1,14.3,29.00,South,190,3.0,4.0,84,0.00,,,0.00,proprietary,2013-01-25 23:29:00,
2013-01-25 18:34:00,18.2,14.4,29.00,South,169,2.4,3.0,84,0.00,,,0.00,proprietary,2013-01-25 23:34:00,
2013-01-25 18:39:00,18.1,14.4,29.00,South,172,3.1,3.6,85,0.00,,,0.00,proprietary,2013-01-25 23:39:00,
2013-01-25 18:44:00,18.0,14.5,29.00,South,174,3.0,3.7,85,0.00,,,0.00,proprietary,2013-01-25 23:44:00,
2013-01-25 18:49:00,17.9,14.6,28.99,SSE,151,3.0,3.5,86,0.00,,,0.00,proprietary,2013-01-25 23:49:00,
2013-01-25 18:54:00,17.9,14.6,29.00,SSE,163,2.8,3.3,86,0.00,,,0.00,proprietary,2013-01-25 23:54:00,
2013-01-25 18:59:00,17.8,14.7,29.00,South,171,3.3,3.8,87,0.00,,,0.00,proprietary,2013-01-25 23:59:00,
2013-01-25 19:04:00,17.7,14.7,29.00,SSE,157,2.9,3.2,87,0.00,,,0.00,proprietary,2013-01-26 00:04:00,
2013-01-25 19:09:00,17.7,14.8,28.99,South,170,2.0,2.3,88,0.00,,,0.00,proprietary,2013-01-26 00:09:00,
2013-01-25 19:14:00,17.6,14.8,29.00,SSE,156,2.3,3.2,88,0.00,,,0.00,proprietary,2013-01-26 00:14:00,
2013-01-25 19:19:00,17.6,14.8,29.00,South,182,2.7,3.1,88,0.00,,,0.00,proprietary,2013-01-26 00:19:00,
2013-01-25 19:24:00,17.6,14.9,29.00,SSE,158,2.5,3.1,88,0.00,,,0.00,proprietary,2013-01-26 00:24:00,
2013-01-25 19:29:00,17.5,14.9,29.00,SSE,167,2.2,2.6,89,0.00,,,0.00,proprietary,2013-01-26 00:29:00,
2013-01-25 19:34:00,17.5,15.0,29.00,South,172,2.6,3.5,89,0.00,,,0.00,proprietary,2013-01-26 00:34:00,
2013-01-25 19:39:00,17.5,15.0,29.00,SSE,167,2.1,2.5,89,0.00,,,0.00,proprietary,2013-01-26 00:39:00,
2013-01-25 19:44:00,17.5,15.0,29.00,SSE,166,1.6,2.0,89,0.00,,,0.00,proprietary,2013-01-26 00:44:00,
2013-01-25 19:50:00,17.5,15.0,29.00,SSE,157,1.6,1.8,89,0.00,,,0.00,proprietary,2013-01-26 00:50:00,
2013-01-25 19:55:00,17.5,15.0,29.00,SSE,159,2.2,2.5,89,0.00,,,0.00,proprietary,2013-01-26 00:55:00,
2013-01-25 20:00:00,17.4,15.0,29.00,SSE,150,2.3,2.7,89,0.00,,,0.00,proprietary,2013-01-26 01:00:00,
2013-01-25 20:05:00,17.4,14.9,29.00,SE,143,2.3,2.9,89,0.00,,,0.00,proprietary,2013-01-26 01:05:00,
2013-01-25 20:10:00,17.4,15.0,29.00,SE,136,2.2,2.8,90,0.00,,,0.00,proprietary,2013-01-26 01:10:00,
2013-01-25 20:15:00,17.3,14.9,29.00,SE,146,2.7,3.9,90,0.00,,,0.00,proprietary,2013-01-26 01:15:00,
2013-01-25 20:20:00,17.3,14.9,29.00,SSE,148,2.3,2.7,90,0.00,,,0.00,proprietary,2013-01-26 01:20:00,
2013-01-25 20:25:00,17.3,14.9,29.00,SE,145,2.2,2.4,90,0.00,,,0.00,proprietary,2013-01-26 01:25:00,
2013-01-25 20:30:00,17.2,14.9,29.00,SE,145,2.0,2.4,90,0.00,,,0.00,proprietary,2013-01-26 01:30:00,
2013-01-25 20:35:00,17.2,14.8,29.00,SE,142,1.9,2.3,90,0.00,,,0.00,proprietary,2013-01-26 01:35:00,
2013-01-25 20:40:00,17.1,14.8,29.00,SE,140,2.0,2.3,90,0.00,,,0.00,proprietary,2013-01-26 01:40:00,
2013-01-25 20:45:00,17.0,14.7,29.00,SSE,149,2.1,2.8,90,0.00,,,0.00,proprietary,2013-01-26 01:45:00,
2013-01-25 20:50:00,17.0,14.6,29.00,SSE,157,2.2,2.6,90,0.00,,,0.00,proprietary,2013-01-26 01:50:00,
2013-01-25 20:55:00,16.9,14.6,29.00,SSE,152,1.5,1.6,90,0.00,,,0.00,proprietary,2013-01-26 01:55:00,
2013-01-25 21:00:00,16.9,14.5,29.00,SE,146,1.8,2.0,90,0.00,,,0.00,proprietary,2013-01-26 02:00:00,
2013-01-25 21:06:00,16.8,14.4,29.00,SSE,153,1.7,2.0,90,0.00,,,0.00,proprietary,2013-01-26 02:06:00,
2013-01-25 21:11:00,16.7,14.4,29.00,SSE,151,1.6,1.9,90,0.00,,,0.00,proprietary,2013-01-26 02:11:00,
2013-01-25 21:16:00,16.8,14.5,29.00,SE,142,1.9,2.1,90,0.00,,,0.00,proprietary,2013-01-26 02:16:00,
2013-01-25 21:21:00,16.8,14.5,29.00,SE,140,1.6,1.9,90,0.00,,,0.00,proprietary,2013-01-26 02:21:00,
2013-01-25 21:26:00,16.9,14.6,29.00,SE,134,1.3,1.8,90,0.00,,,0.00,proprietary,2013-01-26 02:26:00,
2013-01-25 21:32:00,16.9,14.7,29.00,SE,128,1.9,2.1,90,0.00,,,0.00,proprietary,2013-01-26 02:32:00,
2013-01-25 21:37:00,17.0,14.7,29.00,SE,140,2.4,3.1,90,0.00,,,0.00,proprietary,2013-01-26 02:37:00,
2013-01-25 21:42:00,17.1,14.9,29.00,SE,141,2.2,2.5,90,0.00,,,0.00,proprietary,2013-01-26 02:42:00,
2013-01-25 21:47:00,17.2,15.0,29.00,SSE,168,2.1,2.3,90,0.00,,,0.00,proprietary,2013-01-26 02:47:00,
2013-01-25 21:52:00,17.3,15.1,29.00,SE,144,2.4,3.2,90,0.00,,,0.00,proprietary,2013-01-26 02:52:00,
2013-01-25 21:58:00,17.3,15.1,29.00,SSE,149,1.5,2.0,91,0.00,,,0.00,proprietary,2013-01-26 02:58:00,
2013-01-25 22:03:00,17.4,15.2,29.01,SSE,148,2.2,2.6,91,0.00,,,0.00,proprietary,2013-01-26 03:03:00,
2013-01-25 22:08:00,17.4,15.3,29.00,ESE,123,0.6,1.7,91,0.00,,,0.00,proprietary,2013-01-26 03:08:00,
2013-01-25 22:13:00,17.4,15.3,29.00,SE,141,1.6,2.2,91,0.00,,,0.00,proprietary,2013-01-26 03:13:00,
2013-01-25 22:18:00,17.5,15.4,29.00,SSE,148,2.4,3.0,91,0.00,,,0.00,proprietary,2013-01-26 03:18:00,
2013-01-25 22:23:00,17.5,15.4,29.00,SE,142,2.7,3.5,91,0.00,,,0.00,proprietary,2013-01-26 03:23:00,
2013-01-25 22:28:00,17.5,15.4,29.00,SE,142,2.2,2.5,91,0.00,,,0.00,proprietary,2013-01-26 03:28:00,
2013-01-25 22:33:00,17.5,15.4,29.00,SE,144,2.8,3.2,91,0.00,,,0.00,proprietary,2013-01-26 03:33:00,
2013-01-25 22:38:00,17.5,15.4,29.00,SSE,151,2.2,2.6,91,0.00,,,0.00,proprietary,2013-01-26 03:38:00,
2013-01-25 22:44:00,17.5,15.4,29.00,SE,137,2.2,2.7,91,0.00,,,0.00,proprietary,2013-01-26 03:44:00,
2013-01-25 22:49:00,17.5,15.4,29.00,SE,145,2.0,2.6,91,0.00,,,0.00,proprietary,2013-01-26 03:49:00,
2013-01-25 22:54:00,17.5,15.4,29.00,South,173,2.5,2.8,91,0.00,,,0.00,proprietary,2013-01-26 03:54:00,
2013-01-25 22:59:00,17.4,15.4,29.00,SSE,157,1.9,2.3,91,0.00,,,0.00,proprietary,2013-01-26 03:59:00,
2013-01-25 23:04:00,17.4,15.4,29.00,SSE,163,2.1,2.9,91,0.00,,,0.00,proprietary,2013-01-26 04:04:00,
2013-01-25 23:09:00,17.4,15.4,29.00,SSE,156,2.0,2.5,91,0.00,,,0.00,proprietary,2013-01-26 04:09:00,
2013-01-25 23:14:00,17.4,15.3,29.00,South,174,2.1,2.4,91,0.00,,,0.00,proprietary,2013-01-26 04:14:00,
2013-01-25 23:20:00,17.4,15.4,29.01,South,175,1.6,1.8,91,0.00,,,0.00,proprietary,2013-01-26 04:20:00,
2013-01-25 23:26:00,17.3,15.3,29.00,SE,142,1.5,1.9,91,0.00,,,0.00,proprietary,2013-01-26 04:26:00,
2013-01-25 23:31:00,17.3,15.3,29.00,SSE,155,2.4,2.7,91,0.00,,,0.00,proprietary,2013-01-26 04:31:00,
2013-01-25 23:36:00,17.3,15.3,29.01,SSE,153,1.5,1.6,91,0.00,,,0.00,proprietary,2013-01-26 04:36:00,
2013-01-25 23:41:00,17.4,15.4,29.01,SSE,153,1.8,2.0,91,0.00,,,0.00,proprietary,2013-01-26 04:41:00,
2013-01-25 23:46:00,17.4,15.4,29.01,SSE,163,2.0,2.3,91,0.00,,,0.00,proprietary,2013-01-26 04:46:00,
2013-01-25 23:51:00,17.4,15.4,29.01,SSE,161,1.8,2.1,91,0.00,,,0.00,proprietary,2013-01-26 04:51:00,
2013-01-25 23:57:00,17.4,15.4,29.01,SSE,150,1.8,1.9,91,0.00,,,0.00,proprietary,2013-01-26 04:57:00,